Dubbo Airport
YSDU : now visible

Airfield :











YOU CAN JOIN US ON...

 
LOGIN :

Register | Disclaimer

   EN    FR    IT 

 









Legend :    VFR   Marginal VFR   IFR   Intensive IFR   Very Intensive IFR
Visi :
Ceiling :
>= 8 km
>= 3000ft
5 to 8 km
1000 to 3000 ft
1500m to 5 km
500 to 1000 ft
800 to 1500m
200 to 500 ft
< 800m
< 200 ft
Symbols :   Thunderstorms  Fog  Heavy snow  Heavy precipitations  Wind > 20 kt






- Airport Elevation : 935 ft
- IATA code : DBO


YSDU - Dubbo

CURRENT METAR :
  • 101230Z AUTO 00000KT 9999 // NCD 13/12 Q1015 RF00.0/000.0

EXPIRED METARs :
  • 101200Z AUTO 23003KT 9999 // NCD 13/12 Q1015
  • 101130Z AUTO 23006KT 9999 // NCD 13/12 Q1015 RF00.0/000.0
  • 101100Z AUTO 22006KT 9999 // NCD 14/13 Q1016
  • 101030Z AUTO 25006KT 9999 // NCD 14/12 Q1015 RF00.0/000.0
  • 101000Z AUTO 23006KT 9999 // NCD 15/13 Q1015

TAF TAF YSDU
Valid from the 10 at 12:00 until the 11 at 06:00 UTC


101124Z 1012/1106 30006KT CAVOK
FM102300 28015G25KT CAVOK
FM110300 26015G25KT 9999 BKN040



MET'MAP, your aeronautical weather chart ! - Copyright ORBIFLY December 2007 - Disclaimer

ORBIFLY MET'MAP TEAM :

Programming & Development : Alexandra Zaïnal
Concept & original design : Baudouin d'Aumeries
Assistance for programming : Marc-Olivier Méhu
Technical & hardware support : Manuel Goepfert

Contact : metmap@orbifly.com




SOURCES & CREDITS :

   NOAA       Earth
Advisory